sensor_id;sensor_type;location;lat;lon;timestamp;P1;durP1;ratioP1;P2;durP2;ratioP2
7383;SDS011;3733;47.994;8.820;2022-08-25T00:00:16;5.43;;;4.43;;
7383;SDS011;3733;47.994;8.820;2022-08-25T00:02:44;5.30;;;4.80;;
7383;SDS011;3733;47.994;8.820;2022-08-25T00:05:10;5.80;;;5.20;;
7383;SDS011;3733;47.994;8.820;2022-08-25T00:07:35;5.53;;;5.00;;
7383;SDS011;3733;47.994;8.820;2022-08-25T00:10:01;5.00;;;4.60;;
7383;SDS011;3733;47.994;8.820;2022-08-25T00:12:28;6.37;;;5.47;;
7383;SDS011;3733;47.994;8.820;2022-08-25T00:14:54;5.57;;;5.07;;
7383;SDS011;3733;47.994;8.820;2022-08-25T00:17:19;5.27;;;4.63;;
7383;SDS011;3733;47.994;8.820;2022-08-25T00:19:45;5.77;;;4.80;;
7383;SDS011;3733;47.994;8.820;2022-08-25T00:22:10;5.80;;;5.20;;
7383;SDS011;3733;47.994;8.820;2022-08-25T00:24:36;5.30;;;4.70;;
7383;SDS011;3733;47.994;8.820;2022-08-25T00:27:02;5.63;;;5.03;;
7383;SDS011;3733;47.994;8.820;2022-08-25T00:29:28;6.30;;;4.70;;
7383;SDS011;3733;47.994;8.820;2022-08-25T00:31:55;5.47;;;4.77;;
7383;SDS011;3733;47.994;8.820;2022-08-25T00:34:23;5.40;;;4.90;;
7383;SDS011;3733;47.994;8.820;2022-08-25T00:36:52;7.50;;;5.10;;
7383;SDS011;3733;47.994;8.820;2022-08-25T00:39:19;5.97;;;4.67;;
7383;SDS011;3733;47.994;8.820;2022-08-25T00:41:47;7.60;;;4.60;;
7383;SDS011;3733;47.994;8.820;2022-08-25T00:44:14;5.50;;;5.00;;
7383;SDS011;3733;47.994;8.820;2022-08-25T00:46:44;6.53;;;4.90;;
7383;SDS011;3733;47.994;8.820;2022-08-25T00:49:58;6.57;;;4.60;;
7383;SDS011;3733;47.994;8.820;2022-08-25T00:54:40;5.00;;;4.50;;
7383;SDS011;3733;47.994;8.820;2022-08-25T00:57:22;5.43;;;4.93;;
7383;SDS011;3733;47.994;8.820;2022-08-25T00:59:51;6.70;;;4.87;;
7383;SDS011;3733;47.994;8.820;2022-08-25T01:02:17;6.33;;;4.97;;
7383;SDS011;3733;47.994;8.820;2022-08-25T01:04:43;9.20;;;5.00;;
7383;SDS011;3733;47.994;8.820;2022-08-25T01:07:10;7.90;;;5.10;;
7383;SDS011;3733;47.994;8.820;2022-08-25T01:09:36;7.23;;;5.43;;
7383;SDS011;3733;47.994;8.820;2022-08-25T01:12:02;5.47;;;4.93;;
7383;SDS011;3733;47.994;8.820;2022-08-25T01:14:29;7.53;;;5.13;;
7383;SDS011;3733;47.994;8.820;2022-08-25T01:16:56;9.13;;;5.57;;
7383;SDS011;3733;47.994;8.820;2022-08-25T01:19:23;6.83;;;4.80;;
7383;SDS011;3733;47.994;8.820;2022-08-25T01:21:51;5.10;;;4.60;;
7383;SDS011;3733;47.994;8.820;2022-08-25T01:24:37;5.50;;;5.00;;
7383;SDS011;3733;47.994;8.820;2022-08-25T01:27:16;6.50;;;5.23;;
7383;SDS011;3733;47.994;8.820;2022-08-25T01:29:42;5.07;;;4.60;;
7383;SDS011;3733;47.994;8.820;2022-08-25T01:32:09;5.30;;;4.80;;
7383;SDS011;3733;47.994;8.820;2022-08-25T01:34:37;7.80;;;5.60;;
7383;SDS011;3733;47.994;8.820;2022-08-25T01:37:05;5.60;;;4.93;;
7383;SDS011;3733;47.994;8.820;2022-08-25T01:39:32;6.03;;;4.83;;
7383;SDS011;3733;47.994;8.820;2022-08-25T01:45:07;5.97;;;4.90;;
7383;SDS011;3733;47.994;8.820;2022-08-25T01:47:34;5.63;;;4.73;;
7383;SDS011;3733;47.994;8.820;2022-08-25T01:50:01;9.47;;;5.27;;
7383;SDS011;3733;47.994;8.820;2022-08-25T01:52:31;5.13;;;4.63;;
7383;SDS011;3733;47.994;8.820;2022-08-25T01:55:13;8.77;;;4.80;;
7383;SDS011;3733;47.994;8.820;2022-08-25T01:57:39;7.23;;;5.07;;
7383;SDS011;3733;47.994;8.820;2022-08-25T02:00:06;7.57;;;5.70;;
7383;SDS011;3733;47.994;8.820;2022-08-25T02:02:34;6.50;;;5.03;;
7383;SDS011;3733;47.994;8.820;2022-08-25T02:05:00;7.20;;;5.70;;
7383;SDS011;3733;47.994;8.820;2022-08-25T02:07:25;5.87;;;5.07;;
7383;SDS011;3733;47.994;8.820;2022-08-25T02:09:51;5.43;;;4.93;;
7383;SDS011;3733;47.994;8.820;2022-08-25T02:12:16;5.47;;;4.87;;
7383;SDS011;3733;47.994;8.820;2022-08-25T02:14:42;8.63;;;4.67;;
7383;SDS011;3733;47.994;8.820;2022-08-25T02:17:08;7.47;;;5.23;;
7383;SDS011;3733;47.994;8.820;2022-08-25T02:19:33;11.17;;;5.13;;
7383;SDS011;3733;47.994;8.820;2022-08-25T02:21:59;7.90;;;4.80;;
7383;SDS011;3733;47.994;8.820;2022-08-25T02:24:26;7.23;;;5.47;;
7383;SDS011;3733;47.994;8.820;2022-08-25T02:26:52;5.10;;;4.60;;
7383;SDS011;3733;47.994;8.820;2022-08-25T02:29:17;6.70;;;5.47;;
7383;SDS011;3733;47.994;8.820;2022-08-25T02:31:43;7.40;;;5.20;;
7383;SDS011;3733;47.994;8.820;2022-08-25T02:34:09;7.00;;;4.97;;
7383;SDS011;3733;47.994;8.820;2022-08-25T02:36:36;5.20;;;4.70;;
7383;SDS011;3733;47.994;8.820;2022-08-25T02:39:03;5.50;;;5.00;;
7383;SDS011;3733;47.994;8.820;2022-08-25T02:41:30;6.17;;;4.83;;
7383;SDS011;3733;47.994;8.820;2022-08-25T02:43:58;5.83;;;5.07;;
7383;SDS011;3733;47.994;8.820;2022-08-25T02:46:25;7.70;;;5.57;;
7383;SDS011;3733;47.994;8.820;2022-08-25T02:48:51;6.40;;;4.83;;
7383;SDS011;3733;47.994;8.820;2022-08-25T02:51:17;6.30;;;5.00;;
7383;SDS011;3733;47.994;8.820;2022-08-25T02:53:44;5.63;;;5.00;;
7383;SDS011;3733;47.994;8.820;2022-08-25T02:56:11;5.80;;;5.30;;
7383;SDS011;3733;47.994;8.820;2022-08-25T02:58:38;7.37;;;4.63;;
7383;SDS011;3733;47.994;8.820;2022-08-25T03:01:05;6.50;;;5.50;;
7383;SDS011;3733;47.994;8.820;2022-08-25T03:03:32;6.23;;;5.40;;
7383;SDS011;3733;47.994;8.820;2022-08-25T03:05:58;7.83;;;5.60;;
7383;SDS011;3733;47.994;8.820;2022-08-25T03:08:24;5.63;;;5.13;;
7383;SDS011;3733;47.994;8.820;2022-08-25T03:10:50;11.00;;;6.53;;
7383;SDS011;3733;47.994;8.820;2022-08-25T03:13:16;7.90;;;6.03;;
7383;SDS011;3733;47.994;8.820;2022-08-25T03:15:42;9.30;;;6.00;;
7383;SDS011;3733;47.994;8.820;2022-08-25T03:18:09;8.13;;;5.80;;
7383;SDS011;3733;47.994;8.820;2022-08-25T03:20:36;8.53;;;5.80;;
7383;SDS011;3733;47.994;8.820;2022-08-25T03:23:02;6.77;;;5.77;;
7383;SDS011;3733;47.994;8.820;2022-08-25T03:25:29;7.83;;;5.80;;
7383;SDS011;3733;47.994;8.820;2022-08-25T03:28:13;5.93;;;5.37;;
7383;SDS011;3733;47.994;8.820;2022-08-25T03:30:39;6.87;;;5.10;;
7383;SDS011;3733;47.994;8.820;2022-08-25T03:33:06;6.13;;;5.40;;
7383;SDS011;3733;47.994;8.820;2022-08-25T03:35:31;7.20;;;5.83;;
7383;SDS011;3733;47.994;8.820;2022-08-25T03:37:57;7.03;;;5.50;;
7383;SDS011;3733;47.994;8.820;2022-08-25T03:40:24;7.13;;;5.23;;
7383;SDS011;3733;47.994;8.820;2022-08-25T03:42:51;10.50;;;5.90;;
7383;SDS011;3733;47.994;8.820;2022-08-25T03:45:19;6.33;;;5.57;;
7383;SDS011;3733;47.994;8.820;2022-08-25T03:47:47;15.63;;;5.87;;
7383;SDS011;3733;47.994;8.820;2022-08-25T03:50:15;6.40;;;5.37;;
7383;SDS011;3733;47.994;8.820;2022-08-25T03:52:42;5.63;;;4.90;;
7383;SDS011;3733;47.994;8.820;2022-08-25T03:55:09;6.87;;;6.17;;
7383;SDS011;3733;47.994;8.820;2022-08-25T03:57:36;6.27;;;5.07;;
7383;SDS011;3733;47.994;8.820;2022-08-25T04:00:04;9.43;;;6.33;;
7383;SDS011;3733;47.994;8.820;2022-08-25T04:02:32;5.63;;;5.13;;
7383;SDS011;3733;47.994;8.820;2022-08-25T04:04:57;8.93;;;6.37;;
7383;SDS011;3733;47.994;8.820;2022-08-25T04:07:23;6.47;;;5.80;;
7383;SDS011;3733;47.994;8.820;2022-08-25T04:09:49;7.00;;;6.30;;
7383;SDS011;3733;47.994;8.820;2022-08-25T04:12:14;7.80;;;5.93;;
7383;SDS011;3733;47.994;8.820;2022-08-25T04:14:40;7.73;;;6.53;;
7383;SDS011;3733;47.994;8.820;2022-08-25T04:17:06;6.97;;;6.03;;
7383;SDS011;3733;47.994;8.820;2022-08-25T04:19:32;7.40;;;6.00;;
7383;SDS011;3733;47.994;8.820;2022-08-25T04:21:58;5.50;;;4.70;;
7383;SDS011;3733;47.994;8.820;2022-08-25T04:24:23;6.03;;;4.90;;
7383;SDS011;3733;47.994;8.820;2022-08-25T04:26:50;6.10;;;4.60;;
7383;SDS011;3733;47.994;8.820;2022-08-25T04:29:17;5.83;;;4.80;;
7383;SDS011;3733;47.994;8.820;2022-08-25T04:31:45;7.50;;;5.00;;
7383;SDS011;3733;47.994;8.820;2022-08-25T04:34:14;6.00;;;5.10;;
7383;SDS011;3733;47.994;8.820;2022-08-25T04:36:44;8.53;;;5.27;;
7383;SDS011;3733;47.994;8.820;2022-08-25T04:39:10;7.27;;;5.10;;
7383;SDS011;3733;47.994;8.820;2022-08-25T04:41:35;5.60;;;5.10;;
7383;SDS011;3733;47.994;8.820;2022-08-25T04:44:02;6.90;;;5.57;;
7383;SDS011;3733;47.994;8.820;2022-08-25T04:46:29;12.53;;;5.60;;
7383;SDS011;3733;47.994;8.820;2022-08-25T04:48:56;7.37;;;6.57;;
7383;SDS011;3733;47.994;8.820;2022-08-25T04:51:25;8.57;;;5.97;;
7383;SDS011;3733;47.994;8.820;2022-08-25T04:53:57;5.83;;;5.23;;
7383;SDS011;3733;47.994;8.820;2022-08-25T04:56:25;11.30;;;5.40;;
7383;SDS011;3733;47.994;8.820;2022-08-25T04:58:52;8.30;;;5.60;;
7383;SDS011;3733;47.994;8.820;2022-08-25T05:01:19;6.63;;;4.87;;
7383;SDS011;3733;47.994;8.820;2022-08-25T05:03:53;6.87;;;5.53;;
7383;SDS011;3733;47.994;8.820;2022-08-25T05:06:21;6.67;;;5.33;;
7383;SDS011;3733;47.994;8.820;2022-08-25T05:08:48;7.97;;;7.10;;
7383;SDS011;3733;47.994;8.820;2022-08-25T05:11:15;7.17;;;6.00;;
7383;SDS011;3733;47.994;8.820;2022-08-25T05:13:42;6.27;;;5.60;;
7383;SDS011;3733;47.994;8.820;2022-08-25T05:16:12;8.83;;;5.43;;
7383;SDS011;3733;47.994;8.820;2022-08-25T05:18:39;5.70;;;5.13;;
7383;SDS011;3733;47.994;8.820;2022-08-25T05:21:06;7.37;;;5.63;;
7383;SDS011;3733;47.994;8.820;2022-08-25T05:23:34;6.60;;;5.40;;
7383;SDS011;3733;47.994;8.820;2022-08-25T05:26:11;8.10;;;6.13;;
7383;SDS011;3733;47.994;8.820;2022-08-25T05:28:38;5.70;;;5.03;;
7383;SDS011;3733;47.994;8.820;2022-08-25T05:31:06;7.83;;;5.27;;
7383;SDS011;3733;47.994;8.820;2022-08-25T05:33:33;5.83;;;5.23;;
7383;SDS011;3733;47.994;8.820;2022-08-25T05:36:00;7.07;;;5.40;;
7383;SDS011;3733;47.994;8.820;2022-08-25T05:38:26;12.90;;;6.83;;
7383;SDS011;3733;47.994;8.820;2022-08-25T05:40:55;6.90;;;6.20;;
7383;SDS011;3733;47.994;8.820;2022-08-25T05:43:26;9.20;;;6.00;;
7383;SDS011;3733;47.994;8.820;2022-08-25T05:45:53;6.00;;;5.27;;
7383;SDS011;3733;47.994;8.820;2022-08-25T05:48:19;8.90;;;5.10;;
7383;SDS011;3733;47.994;8.820;2022-08-25T05:51:00;6.30;;;5.17;;
7383;SDS011;3733;47.994;8.820;2022-08-25T05:53:28;11.83;;;4.97;;
7383;SDS011;3733;47.994;8.820;2022-08-25T05:55:55;16.50;;;6.00;;
7383;SDS011;3733;47.994;8.820;2022-08-25T05:58:22;11.03;;;5.63;;
7383;SDS011;3733;47.994;8.820;2022-08-25T06:00:50;5.57;;;5.07;;
7383;SDS011;3733;47.994;8.820;2022-08-25T06:03:16;6.90;;;5.13;;
7383;SDS011;3733;47.994;8.820;2022-08-25T06:05:42;7.20;;;5.53;;
7383;SDS011;3733;47.994;8.820;2022-08-25T06:08:08;7.40;;;5.73;;
7383;SDS011;3733;47.994;8.820;2022-08-25T06:10:34;7.23;;;5.77;;
7383;SDS011;3733;47.994;8.820;2022-08-25T06:13:01;6.40;;;5.70;;
7383;SDS011;3733;47.994;8.820;2022-08-25T06:15:27;10.83;;;5.20;;
7383;SDS011;3733;47.994;8.820;2022-08-25T06:17:54;9.07;;;5.90;;
7383;SDS011;3733;47.994;8.820;2022-08-25T06:20:23;8.03;;;5.93;;
7383;SDS011;3733;47.994;8.820;2022-08-25T06:22:51;8.27;;;6.50;;
7383;SDS011;3733;47.994;8.820;2022-08-25T06:25:18;6.70;;;6.00;;
7383;SDS011;3733;47.994;8.820;2022-08-25T06:27:45;8.27;;;5.73;;
7383;SDS011;3733;47.994;8.820;2022-08-25T06:30:13;9.73;;;6.40;;
7383;SDS011;3733;47.994;8.820;2022-08-25T06:32:41;8.13;;;6.17;;
7383;SDS011;3733;47.994;8.820;2022-08-25T06:35:09;8.80;;;6.17;;
7383;SDS011;3733;47.994;8.820;2022-08-25T06:37:37;6.20;;;5.10;;
7383;SDS011;3733;47.994;8.820;2022-08-25T06:40:05;8.57;;;6.30;;
7383;SDS011;3733;47.994;8.820;2022-08-25T06:42:32;6.27;;;5.50;;
7383;SDS011;3733;47.994;8.820;2022-08-25T06:44:58;8.10;;;5.73;;
7383;SDS011;3733;47.994;8.820;2022-08-25T06:47:23;8.33;;;5.97;;
7383;SDS011;3733;47.994;8.820;2022-08-25T06:49:49;10.00;;;6.50;;
7383;SDS011;3733;47.994;8.820;2022-08-25T06:52:15;8.27;;;6.33;;
7383;SDS011;3733;47.994;8.820;2022-08-25T06:54:40;10.03;;;6.17;;
7383;SDS011;3733;47.994;8.820;2022-08-25T06:57:06;13.10;;;6.90;;
7383;SDS011;3733;47.994;8.820;2022-08-25T06:59:33;9.17;;;6.87;;
7383;SDS011;3733;47.994;8.820;2022-08-25T07:01:59;10.70;;;7.20;;
7383;SDS011;3733;47.994;8.820;2022-08-25T07:04:25;9.23;;;6.90;;
7383;SDS011;3733;47.994;8.820;2022-08-25T07:06:51;16.00;;;8.80;;
7383;SDS011;3733;47.994;8.820;2022-08-25T07:09:17;11.57;;;7.23;;
7383;SDS011;3733;47.994;8.820;2022-08-25T07:11:43;14.70;;;7.10;;
7383;SDS011;3733;47.994;8.820;2022-08-25T07:14:10;9.73;;;7.57;;
7383;SDS011;3733;47.994;8.820;2022-08-25T07:16:37;11.30;;;7.47;;
7383;SDS011;3733;47.994;8.820;2022-08-25T07:19:04;10.00;;;6.93;;
7383;SDS011;3733;47.994;8.820;2022-08-25T07:21:30;11.60;;;8.20;;
7383;SDS011;3733;47.994;8.820;2022-08-25T07:23:58;11.50;;;7.40;;
7383;SDS011;3733;47.994;8.820;2022-08-25T07:26:26;10.00;;;7.83;;
7383;SDS011;3733;47.994;8.820;2022-08-25T07:28:55;8.50;;;6.90;;
7383;SDS011;3733;47.994;8.820;2022-08-25T07:31:22;10.43;;;7.20;;
7383;SDS011;3733;47.994;8.820;2022-08-25T07:33:48;9.80;;;7.03;;
7383;SDS011;3733;47.994;8.820;2022-08-25T07:36:32;16.10;;;6.60;;
7383;SDS011;3733;47.994;8.820;2022-08-25T07:38:58;9.73;;;6.73;;
7383;SDS011;3733;47.994;8.820;2022-08-25T07:41:24;7.90;;;6.20;;
7383;SDS011;3733;47.994;8.820;2022-08-25T07:43:50;8.97;;;5.67;;
7383;SDS011;3733;47.994;8.820;2022-08-25T07:46:16;7.77;;;5.50;;
7383;SDS011;3733;47.994;8.820;2022-08-25T07:48:42;8.07;;;6.20;;
7383;SDS011;3733;47.994;8.820;2022-08-25T07:51:09;10.00;;;6.07;;
7383;SDS011;3733;47.994;8.820;2022-08-25T07:53:36;7.07;;;5.50;;
7383;SDS011;3733;47.994;8.820;2022-08-25T07:56:07;7.77;;;5.63;;
7383;SDS011;3733;47.994;8.820;2022-08-25T07:58:37;7.53;;;5.30;;
7383;SDS011;3733;47.994;8.820;2022-08-25T08:01:04;6.70;;;5.63;;
7383;SDS011;3733;47.994;8.820;2022-08-25T08:03:31;7.70;;;6.50;;
7383;SDS011;3733;47.994;8.820;2022-08-25T08:05:58;8.60;;;5.70;;
7383;SDS011;3733;47.994;8.820;2022-08-25T08:08:25;7.33;;;5.43;;
7383;SDS011;3733;47.994;8.820;2022-08-25T08:10:51;10.57;;;5.90;;
7383;SDS011;3733;47.994;8.820;2022-08-25T08:13:17;11.37;;;6.50;;
7383;SDS011;3733;47.994;8.820;2022-08-25T08:15:43;12.73;;;5.83;;
7383;SDS011;3733;47.994;8.820;2022-08-25T08:18:09;5.93;;;5.33;;
7383;SDS011;3733;47.994;8.820;2022-08-25T08:20:35;6.37;;;5.00;;
7383;SDS011;3733;47.994;8.820;2022-08-25T08:23:01;7.67;;;5.50;;
7383;SDS011;3733;47.994;8.820;2022-08-25T08:25:26;5.50;;;4.80;;
7383;SDS011;3733;47.994;8.820;2022-08-25T08:27:53;8.90;;;4.43;;
7383;SDS011;3733;47.994;8.820;2022-08-25T08:30:19;6.70;;;5.33;;
7383;SDS011;3733;47.994;8.820;2022-08-25T08:32:45;7.20;;;4.70;;
7383;SDS011;3733;47.994;8.820;2022-08-25T08:35:13;5.73;;;4.80;;
7383;SDS011;3733;47.994;8.820;2022-08-25T08:37:43;5.93;;;5.30;;
7383;SDS011;3733;47.994;8.820;2022-08-25T08:40:10;5.70;;;4.70;;
7383;SDS011;3733;47.994;8.820;2022-08-25T08:45:37;5.00;;;4.50;;
7383;SDS011;3733;47.994;8.820;2022-08-25T08:50:55;9.10;;;5.30;;
7383;SDS011;3733;47.994;8.820;2022-08-25T08:53:44;7.83;;;5.30;;
7383;SDS011;3733;47.994;8.820;2022-08-25T08:56:19;14.40;;;4.73;;
7383;SDS011;3733;47.994;8.820;2022-08-25T08:59:02;7.27;;;4.80;;
7383;SDS011;3733;47.994;8.820;2022-08-25T09:01:34;5.63;;;4.83;;
7383;SDS011;3733;47.994;8.820;2022-08-25T09:04:10;6.20;;;5.17;;
7383;SDS011;3733;47.994;8.820;2022-08-25T09:06:42;7.80;;;4.80;;
7383;SDS011;3733;47.994;8.820;2022-08-25T09:09:23;6.30;;;4.80;;
7383;SDS011;3733;47.994;8.820;2022-08-25T09:30:18;5.60;;;4.57;;
7383;SDS011;3733;47.994;8.820;2022-08-25T09:32:50;9.17;;;4.90;;
7383;SDS011;3733;47.994;8.820;2022-08-25T09:35:26;5.47;;;4.80;;
7383;SDS011;3733;47.994;8.820;2022-08-25T09:40:25;6.33;;;4.50;;
7383;SDS011;3733;47.994;8.820;2022-08-25T09:42:53;5.63;;;5.03;;
7383;SDS011;3733;47.994;8.820;2022-08-25T09:47:59;5.20;;;4.70;;
7383;SDS011;3733;47.994;8.820;2022-08-25T09:50:24;7.73;;;4.40;;
7383;SDS011;3733;47.994;8.820;2022-08-25T09:52:58;5.73;;;4.73;;
7383;SDS011;3733;47.994;8.820;2022-08-25T09:55:38;5.77;;;4.83;;
7383;SDS011;3733;47.994;8.820;2022-08-25T09:58:17;5.50;;;4.57;;
7383;SDS011;3733;47.994;8.820;2022-08-25T10:00:59;6.13;;;4.00;;
7383;SDS011;3733;47.994;8.820;2022-08-25T10:03:28;4.87;;;4.33;;
7383;SDS011;3733;47.994;8.820;2022-08-25T10:10:56;6.77;;;5.37;;
7383;SDS011;3733;47.994;8.820;2022-08-25T10:13:44;4.70;;;4.13;;
7383;SDS011;3733;47.994;8.820;2022-08-25T10:19:38;4.53;;;4.10;;
7383;SDS011;3733;47.994;8.820;2022-08-25T10:22:11;4.30;;;4.00;;
7383;SDS011;3733;47.994;8.820;2022-08-25T10:24:50;5.20;;;4.47;;
7383;SDS011;3733;47.994;8.820;2022-08-25T10:27:22;6.03;;;4.73;;
7383;SDS011;3733;47.994;8.820;2022-08-25T10:30:21;5.13;;;4.63;;
7383;SDS011;3733;47.994;8.820;2022-08-25T10:32:54;6.40;;;4.50;;
7383;SDS011;3733;47.994;8.820;2022-08-25T10:38:41;6.20;;;4.50;;
7383;SDS011;3733;47.994;8.820;2022-08-25T10:46:45;8.53;;;4.10;;
7383;SDS011;3733;47.994;8.820;2022-08-25T10:52:06;7.30;;;4.87;;
7383;SDS011;3733;47.994;8.820;2022-08-25T11:00:21;6.30;;;4.73;;
7383;SDS011;3733;47.994;8.820;2022-08-25T11:11:45;6.30;;;5.13;;
7383;SDS011;3733;47.994;8.820;2022-08-25T11:14:24;7.73;;;4.40;;
7383;SDS011;3733;47.994;8.820;2022-08-25T11:17:19;5.43;;;4.13;;
7383;SDS011;3733;47.994;8.820;2022-08-25T11:19:38;5.00;;;4.30;;
7383;SDS011;3733;47.994;8.820;2022-08-25T11:25:27;5.13;;;3.97;;
7383;SDS011;3733;47.994;8.820;2022-08-25T11:30:31;4.67;;;4.07;;
7383;SDS011;3733;47.994;8.820;2022-08-25T11:32:57;4.80;;;4.40;;
7383;SDS011;3733;47.994;8.820;2022-08-25T11:35:37;6.23;;;4.40;;
7383;SDS011;3733;47.994;8.820;2022-08-25T11:41:35;5.43;;;4.60;;
7383;SDS011;3733;47.994;8.820;2022-08-25T11:47:22;6.07;;;4.30;;
7383;SDS011;3733;47.994;8.820;2022-08-25T11:49:52;3.80;;;3.50;;
7383;SDS011;3733;47.994;8.820;2022-08-25T11:55:19;4.10;;;3.70;;
7383;SDS011;3733;47.994;8.820;2022-08-25T12:00:54;4.50;;;3.90;;
7383;SDS011;3733;47.994;8.820;2022-08-25T12:09:24;3.80;;;3.50;;
7383;SDS011;3733;47.994;8.820;2022-08-25T12:14:16;3.65;;;3.13;;
7383;SDS011;3733;47.994;8.820;2022-08-25T12:17:07;3.58;;;3.20;;
7383;SDS011;3733;47.994;8.820;2022-08-25T12:24:48;4.07;;;3.67;;
7383;SDS011;3733;47.994;8.820;2022-08-25T12:30:22;4.03;;;3.30;;
7383;SDS011;3733;47.994;8.820;2022-08-25T12:38:26;4.93;;;3.97;;
7383;SDS011;3733;47.994;8.820;2022-08-25T12:41:08;3.38;;;3.08;;
7383;SDS011;3733;47.994;8.820;2022-08-25T12:43:47;4.18;;;3.17;;
7383;SDS011;3733;47.994;8.820;2022-08-25T12:51:21;4.45;;;3.15;;
7383;SDS011;3733;47.994;8.820;2022-08-25T12:54:36;3.03;;;2.60;;
7383;SDS011;3733;47.994;8.820;2022-08-25T12:56:44;3.80;;;2.97;;
7383;SDS011;3733;47.994;8.820;2022-08-25T12:59:30;3.47;;;2.90;;
7383;SDS011;3733;47.994;8.820;2022-08-25T13:12:51;4.45;;;3.25;;
7383;SDS011;3733;47.994;8.820;2022-08-25T13:18:11;3.40;;;3.20;;
7383;SDS011;3733;47.994;8.820;2022-08-25T13:20:52;7.45;;;3.50;;
7383;SDS011;3733;47.994;8.820;2022-08-25T13:23:27;3.30;;;3.05;;
7383;SDS011;3733;47.994;8.820;2022-08-25T13:25:54;3.05;;;2.58;;
7383;SDS011;3733;47.994;8.820;2022-08-25T13:28:28;3.40;;;3.03;;
7383;SDS011;3733;47.994;8.820;2022-08-25T13:31:00;6.18;;;2.75;;
7383;SDS011;3733;47.994;8.820;2022-08-25T13:33:29;3.30;;;2.97;;
7383;SDS011;3733;47.994;8.820;2022-08-25T13:35:56;4.00;;;3.20;;
7383;SDS011;3733;47.994;8.820;2022-08-25T13:38:41;3.42;;;3.13;;
7383;SDS011;3733;47.994;8.820;2022-08-25T13:41:08;4.40;;;3.10;;
7383;SDS011;3733;47.994;8.820;2022-08-25T13:43:35;3.33;;;3.03;;
7383;SDS011;3733;47.994;8.820;2022-08-25T13:46:02;3.42;;;3.13;;
7383;SDS011;3733;47.994;8.820;2022-08-25T13:48:30;3.80;;;2.80;;
7383;SDS011;3733;47.994;8.820;2022-08-25T13:51:04;4.80;;;3.28;;
7383;SDS011;3733;47.994;8.820;2022-08-25T13:53:33;4.97;;;3.15;;
7383;SDS011;3733;47.994;8.820;2022-08-25T13:55:59;3.38;;;3.08;;
7383;SDS011;3733;47.994;8.820;2022-08-25T13:58:30;4.15;;;2.97;;
7383;SDS011;3733;47.994;8.820;2022-08-25T14:03:40;2.88;;;2.67;;
7383;SDS011;3733;47.994;8.820;2022-08-25T14:08:40;3.97;;;3.20;;
7383;SDS011;3733;47.994;8.820;2022-08-25T14:11:10;3.35;;;3.03;;
7383;SDS011;3733;47.994;8.820;2022-08-25T14:13:57;2.92;;;2.72;;
7383;SDS011;3733;47.994;8.820;2022-08-25T14:16:44;3.85;;;2.67;;
7383;SDS011;3733;47.994;8.820;2022-08-25T14:19:25;2.85;;;2.65;;
7383;SDS011;3733;47.994;8.820;2022-08-25T14:21:51;3.17;;;2.88;;
7383;SDS011;3733;47.994;8.820;2022-08-25T14:24:18;3.58;;;2.72;;
7383;SDS011;3733;47.994;8.820;2022-08-25T14:26:45;4.30;;;3.42;;
7383;SDS011;3733;47.994;8.820;2022-08-25T14:29:12;3.15;;;2.80;;
7383;SDS011;3733;47.994;8.820;2022-08-25T14:31:39;3.53;;;3.22;;
7383;SDS011;3733;47.994;8.820;2022-08-25T14:34:21;3.60;;;2.80;;
7383;SDS011;3733;47.994;8.820;2022-08-25T14:36:49;3.67;;;2.83;;
7383;SDS011;3733;47.994;8.820;2022-08-25T14:39:15;3.55;;;3.25;;
7383;SDS011;3733;47.994;8.820;2022-08-25T14:41:42;3.05;;;2.85;;
7383;SDS011;3733;47.994;8.820;2022-08-25T14:44:10;3.33;;;3.03;;
7383;SDS011;3733;47.994;8.820;2022-08-25T14:46:39;5.15;;;3.50;;
7383;SDS011;3733;47.994;8.820;2022-08-25T14:49:11;3.58;;;3.17;;
7383;SDS011;3733;47.994;8.820;2022-08-25T14:51:41;3.83;;;2.70;;
7383;SDS011;3733;47.994;8.820;2022-08-25T14:54:09;8.05;;;3.05;;
7383;SDS011;3733;47.994;8.820;2022-08-25T14:56:37;3.60;;;3.30;;
7383;SDS011;3733;47.994;8.820;2022-08-25T14:59:03;3.40;;;3.03;;
7383;SDS011;3733;47.994;8.820;2022-08-25T15:01:29;3.30;;;3.10;;
7383;SDS011;3733;47.994;8.820;2022-08-25T15:06:33;3.80;;;3.05;;
7383;SDS011;3733;47.994;8.820;2022-08-25T15:09:00;4.90;;;2.97;;
7383;SDS011;3733;47.994;8.820;2022-08-25T15:11:32;4.82;;;3.15;;
7383;SDS011;3733;47.994;8.820;2022-08-25T15:13:58;3.30;;;3.00;;
7383;SDS011;3733;47.994;8.820;2022-08-25T15:16:33;6.68;;;3.30;;
7383;SDS011;3733;47.994;8.820;2022-08-25T15:19:04;3.42;;;3.10;;
7383;SDS011;3733;47.994;8.820;2022-08-25T15:21:31;4.35;;;2.72;;
7383;SDS011;3733;47.994;8.820;2022-08-25T15:23:58;3.53;;;3.22;;
7383;SDS011;3733;47.994;8.820;2022-08-25T15:26:24;5.90;;;3.60;;
7383;SDS011;3733;47.994;8.820;2022-08-25T15:28:50;10.15;;;3.20;;
7383;SDS011;3733;47.994;8.820;2022-08-25T15:31:16;10.32;;;3.20;;
7383;SDS011;3733;47.994;8.820;2022-08-25T15:33:44;3.60;;;3.22;;
7383;SDS011;3733;47.994;8.820;2022-08-25T15:36:12;3.50;;;3.20;;
7383;SDS011;3733;47.994;8.820;2022-08-25T15:38:40;5.93;;;3.13;;
7383;SDS011;3733;47.994;8.820;2022-08-25T15:41:07;4.18;;;3.25;;
7383;SDS011;3733;47.994;8.820;2022-08-25T15:43:34;3.40;;;3.10;;
7383;SDS011;3733;47.994;8.820;2022-08-25T15:45:59;3.35;;;3.05;;
7383;SDS011;3733;47.994;8.820;2022-08-25T15:48:25;3.58;;;3.25;;
7383;SDS011;3733;47.994;8.820;2022-08-25T15:50:54;5.20;;;3.13;;
7383;SDS011;3733;47.994;8.820;2022-08-25T15:53:22;7.32;;;3.42;;
7383;SDS011;3733;47.994;8.820;2022-08-25T15:55:50;4.70;;;3.55;;
7383;SDS011;3733;47.994;8.820;2022-08-25T15:58:16;3.10;;;2.90;;
7383;SDS011;3733;47.994;8.820;2022-08-25T16:00:43;3.72;;;3.40;;
7383;SDS011;3733;47.994;8.820;2022-08-25T16:03:10;5.03;;;3.65;;
7383;SDS011;3733;47.994;8.820;2022-08-25T16:05:36;4.90;;;3.65;;
7383;SDS011;3733;47.994;8.820;2022-08-25T16:08:03;3.78;;;3.47;;
7383;SDS011;3733;47.994;8.820;2022-08-25T16:10:33;8.57;;;3.15;;
7383;SDS011;3733;47.994;8.820;2022-08-25T16:13:00;3.97;;;3.60;;
7383;SDS011;3733;47.994;8.820;2022-08-25T16:15:26;4.75;;;3.13;;
7383;SDS011;3733;47.994;8.820;2022-08-25T16:17:52;5.00;;;3.63;;
7383;SDS011;3733;47.994;8.820;2022-08-25T16:20:18;4.10;;;3.70;;
7383;SDS011;3733;47.994;8.820;2022-08-25T16:22:45;5.90;;;4.10;;
7383;SDS011;3733;47.994;8.820;2022-08-25T16:25:11;4.43;;;4.03;;
7383;SDS011;3733;47.994;8.820;2022-08-25T16:27:38;6.97;;;3.70;;
7383;SDS011;3733;47.994;8.820;2022-08-25T16:30:04;4.05;;;3.65;;
7383;SDS011;3733;47.994;8.820;2022-08-25T16:32:32;4.72;;;3.72;;
7383;SDS011;3733;47.994;8.820;2022-08-25T16:34:58;3.50;;;3.20;;
7383;SDS011;3733;47.994;8.820;2022-08-25T16:37:23;4.30;;;3.90;;
7383;SDS011;3733;47.994;8.820;2022-08-25T16:39:52;6.97;;;3.72;;
7383;SDS011;3733;47.994;8.820;2022-08-25T16:42:19;4.07;;;3.78;;
7383;SDS011;3733;47.994;8.820;2022-08-25T16:44:45;6.95;;;4.25;;
7383;SDS011;3733;47.994;8.820;2022-08-25T16:47:10;4.25;;;3.83;;
7383;SDS011;3733;47.994;8.820;2022-08-25T16:49:38;8.00;;;4.13;;
7383;SDS011;3733;47.994;8.820;2022-08-25T16:52:04;4.72;;;3.90;;
7383;SDS011;3733;47.994;8.820;2022-08-25T16:54:51;5.18;;;3.58;;
7383;SDS011;3733;47.994;8.820;2022-08-25T16:57:35;4.77;;;3.77;;
7383;SDS011;3733;47.994;8.820;2022-08-25T17:00:03;6.43;;;3.80;;
7383;SDS011;3733;47.994;8.820;2022-08-25T17:02:29;4.50;;;3.90;;
7383;SDS011;3733;47.994;8.820;2022-08-25T17:04:55;5.53;;;4.60;;
7383;SDS011;3733;47.994;8.820;2022-08-25T17:07:21;5.37;;;3.90;;
7383;SDS011;3733;47.994;8.820;2022-08-25T17:09:46;5.57;;;4.47;;
7383;SDS011;3733;47.994;8.820;2022-08-25T17:12:12;6.20;;;4.50;;
7383;SDS011;3733;47.994;8.820;2022-08-25T17:14:38;4.33;;;3.93;;
7383;SDS011;3733;47.994;8.820;2022-08-25T17:17:03;8.70;;;4.50;;
7383;SDS011;3733;47.994;8.820;2022-08-25T17:19:29;5.70;;;4.07;;
7383;SDS011;3733;47.994;8.820;2022-08-25T17:21:55;4.70;;;4.30;;
7383;SDS011;3733;47.994;8.820;2022-08-25T17:24:22;6.30;;;4.47;;
7383;SDS011;3733;47.994;8.820;2022-08-25T17:26:48;6.60;;;4.23;;
7383;SDS011;3733;47.994;8.820;2022-08-25T17:29:15;6.97;;;5.03;;
7383;SDS011;3733;47.994;8.820;2022-08-25T17:31:41;9.60;;;4.20;;
7383;SDS011;3733;47.994;8.820;2022-08-25T17:34:10;10.20;;;5.60;;
7383;SDS011;3733;47.994;8.820;2022-08-25T17:36:38;8.63;;;4.77;;
7383;SDS011;3733;47.994;8.820;2022-08-25T17:39:05;7.83;;;4.33;;
7383;SDS011;3733;47.994;8.820;2022-08-25T17:41:32;5.87;;;4.80;;